Tralee, Ireland
Current Conditions -  °F | °C
As of 11:00 AM on Saturday 25 Oct 2014 (Local Time) from EIKY Reporting Station
Rain Showers Rain Showers  
Wind Chill: 54°   Ceiling: 2700
Heat Index: 54°   Visibility: 6mi
Dew Point: 48°   Wind: 13mph
Humidity: 82%   Direction: 240°WSW
Pressure: 29.91"   Gusts: NA
Location:  52.28°N, 9.72°W
Report Text: EIKY 251000Z 24011KT 9999 SHRA SCT019 BKN027 12/09 Q1013
Loading
Personal Weather Stations






























Interactive Weather Map
Tropical Storm Tracking
New forecast layout! Learn more

10-Day Weather Forecast

Advertisements
Track Severe Weather on mobile